createdAt,value
2023-02-06T00:01:48.839Z,1.98
2023-02-06T00:07:10.561Z,2.00
2023-02-06T00:12:32.267Z,2.10
2023-02-06T00:17:54.137Z,1.80
2023-02-06T00:23:16.592Z,2.15
2023-02-06T00:28:38.457Z,2.20
2023-02-06T00:34:00.194Z,1.90
2023-02-06T00:39:21.902Z,2.30
2023-02-06T00:44:43.871Z,2.38
2023-02-06T00:50:06.359Z,1.92
2023-02-06T00:55:28.029Z,2.35
2023-02-06T01:00:49.842Z,1.80
2023-02-06T01:06:11.517Z,2.50
2023-02-06T01:11:33.331Z,2.28
2023-02-06T01:16:55.024Z,2.60
2023-02-06T01:22:16.716Z,2.55
2023-02-06T01:27:38.574Z,2.80
2023-02-06T01:33:00.373Z,2.65
2023-02-06T01:38:22.166Z,2.50
2023-02-06T01:43:47.459Z,2.38
2023-02-06T01:49:16.782Z,2.40
2023-02-06T01:54:38.520Z,2.30
2023-02-06T02:00:06.250Z,2.10
2023-02-06T02:05:28.074Z,2.40
2023-02-06T02:10:49.802Z,2.17
2023-02-06T02:16:39.756Z,2.50
2023-02-06T02:22:40.180Z,2.42
2023-02-06T02:28:52.922Z,2.05
2023-02-06T02:34:51.992Z,2.55
2023-02-06T02:40:25.819Z,1.80
2023-02-06T02:46:00.797Z,2.10
2023-02-06T02:51:23.743Z,2.10
2023-02-06T02:56:46.100Z,1.83
2023-02-06T03:02:22.677Z,1.90
2023-02-06T03:07:56.275Z,2.13
2023-02-06T03:13:26.549Z,1.50
2023-02-06T03:19:25.040Z,1.63
2023-02-06T03:24:48.827Z,1.67
2023-02-06T03:30:14.158Z,1.30
2023-02-06T03:35:38.642Z,1.63
2023-02-06T03:41:01.530Z,1.55
2023-02-06T03:46:24.199Z,1.55
2023-02-06T03:51:56.807Z,1.10
2023-02-06T03:57:21.465Z,1.17
2023-02-06T04:02:47.738Z,1.45
2023-02-06T04:08:09.479Z,1.20
2023-02-06T04:13:31.168Z,1.30
2023-02-06T04:18:52.928Z,1.40
2023-02-06T04:24:14.705Z,0.95
2023-02-06T04:29:36.385Z,1.00
2023-02-06T04:34:58.130Z,1.00
2023-02-06T04:40:19.955Z,1.20
2023-02-06T04:45:42.083Z,0.93
2023-02-06T04:51:04.277Z,1.20
2023-02-06T04:56:26.074Z,1.48
2023-02-06T05:01:48.234Z,1.33
2023-02-06T05:07:10.008Z,1.17
2023-02-06T05:12:31.689Z,1.30
2023-02-06T05:17:54.701Z,1.17
2023-02-06T05:23:16.416Z,1.20
2023-02-06T05:28:38.254Z,1.15
2023-02-06T05:34:00.188Z,0.95
2023-02-06T05:39:21.938Z,1.25
2023-02-06T05:44:43.678Z,1.00
2023-02-06T05:50:05.784Z,0.80
2023-02-06T05:55:27.883Z,1.00
2023-02-06T06:00:49.681Z,1.52
2023-02-06T06:06:11.420Z,0.90
2023-02-06T06:11:33.633Z,1.23
2023-02-06T06:16:55.362Z,0.90
2023-02-06T06:22:17.062Z,1.60
2023-02-06T06:27:39.537Z,0.85
2023-02-06T06:33:01.204Z,1.00
2023-02-06T06:38:23.819Z,0.90
2023-02-06T06:43:45.594Z,1.20
2023-02-06T06:49:07.806Z,0.95
2023-02-06T06:54:29.544Z,0.85
2023-02-06T06:59:51.523Z,0.98
2023-02-06T07:05:13.920Z,0.70
2023-02-06T07:10:35.640Z,0.93
2023-02-06T07:15:57.315Z,1.23
2023-02-06T07:21:20.083Z,1.10
2023-02-06T07:26:41.844Z,1.15
2023-02-06T07:32:04.896Z,1.00
2023-02-06T07:37:26.635Z,1.30
2023-02-06T07:42:48.514Z,1.15
2023-02-06T07:48:10.883Z,1.25
2023-02-06T07:53:32.935Z,1.27
2023-02-06T07:58:55.583Z,1.35
2023-02-06T08:04:17.293Z,1.30
2023-02-06T08:09:39.060Z,1.15
2023-02-06T08:15:00.849Z,1.27
2023-02-06T08:20:22.540Z,1.45
2023-02-06T08:25:44.412Z,1.10
2023-02-06T08:31:11.974Z,0.95
2023-02-06T08:36:34.747Z,1.02
2023-02-06T08:41:56.475Z,1.38
2023-02-06T08:47:18.260Z,1.33
2023-02-06T08:52:40.460Z,1.17
2023-02-06T08:58:02.332Z,1.10
2023-02-06T09:03:24.080Z,0.88
2023-02-06T09:08:45.756Z,1.17
2023-02-06T09:14:09.109Z,1.20
2023-02-06T09:19:30.832Z,1.30
2023-02-06T09:24:52.522Z,1.80
2023-02-06T09:30:15.694Z,1.52
2023-02-06T09:35:37.713Z,1.88
2023-02-06T09:41:03.132Z,1.33
2023-02-06T09:46:34.437Z,1.40
2023-02-06T09:52:11.177Z,1.40
2023-02-06T09:57:48.009Z,1.40
2023-02-06T10:03:43.821Z,1.40
2023-02-06T10:09:14.205Z,1.17
2023-02-06T10:14:41.662Z,1.58
2023-02-06T10:20:27.014Z,1.60
2023-02-06T10:26:17.801Z,1.48
2023-02-06T10:31:50.145Z,1.38
2023-02-06T10:37:29.987Z,1.45
2023-02-06T10:43:11.012Z,1.30
2023-02-06T10:48:46.807Z,1.25
2023-02-06T11:00:04.510Z,1.13
2023-02-06T11:05:29.635Z,1.38
2023-02-06T11:10:52.244Z,1.20
2023-02-06T11:16:17.025Z,1.33
2023-02-06T11:21:41.545Z,1.40
2023-02-06T11:27:23.422Z,1.30
2023-02-06T11:32:59.048Z,1.15
2023-02-06T11:38:29.680Z,1.60
2023-02-06T11:43:54.032Z,1.67
2023-02-06T11:49:29.265Z,1.23
2023-02-06T11:54:55.620Z,1.63
2023-02-06T12:00:23.182Z,1.70
2023-02-06T12:05:45.160Z,1.95
2023-02-06T12:11:16.520Z,2.53
2023-02-06T12:16:40.578Z,1.80
2023-02-06T12:22:13.897Z,1.77
2023-02-06T12:27:39.684Z,1.25
2023-02-06T12:33:15.725Z,1.80
2023-02-06T12:38:57.398Z,1.58
2023-02-06T12:44:40.903Z,1.50
2023-02-06T12:50:16.039Z,1.70
2023-02-06T12:55:44.742Z,1.80
2023-02-06T13:01:08.320Z,1.20
2023-02-06T13:06:59.682Z,1.65
2023-02-06T13:12:30.547Z,1.35
2023-02-06T13:17:52.770Z,1.65
2023-02-06T13:23:14.673Z,1.55
2023-02-06T13:28:41.491Z,1.83
2023-02-06T13:34:07.543Z,1.42
2023-02-06T13:39:32.509Z,1.75
2023-02-06T13:44:54.678Z,1.17
2023-02-06T13:50:40.602Z,1.30
2023-02-06T13:56:14.727Z,1.37
2023-02-06T14:01:36.945Z,2.22
2023-02-06T14:07:10.806Z,2.00
2023-02-06T14:13:15.259Z,2.42
2023-02-06T14:18:48.687Z,2.03
2023-02-06T14:24:31.699Z,1.90
2023-02-06T14:30:18.969Z,1.58
2023-02-06T14:35:43.564Z,1.85
2023-02-06T14:41:05.833Z,1.63
2023-02-06T14:46:29.066Z,1.65
2023-02-06T14:51:52.707Z,2.15
2023-02-06T14:57:26.116Z,2.80
2023-02-06T15:03:03.116Z,2.45
2023-02-06T15:08:24.846Z,1.92
2023-02-06T15:13:51.945Z,1.70
2023-02-06T15:19:24.973Z,2.00
2023-02-06T15:25:11.496Z,1.98
2023-02-06T15:35:58.514Z,2.20
2023-02-06T15:41:21.084Z,2.10
2023-02-06T15:46:43.239Z,1.92
2023-02-06T15:52:05.275Z,2.03
2023-02-06T15:57:39.198Z,1.80
2023-02-06T16:03:07.786Z,1.90
2023-02-06T16:08:35.801Z,1.83
2023-02-06T16:13:57.971Z,2.10
2023-02-06T16:19:39.665Z,2.10
2023-02-06T16:25:19.968Z,2.35
2023-02-06T16:30:41.808Z,2.42
2023-02-06T16:36:04.035Z,2.60
2023-02-06T16:41:28.453Z,2.90
2023-02-06T16:46:50.171Z,2.97
2023-02-06T16:52:19.584Z,3.50
2023-02-06T16:57:45.079Z,2.95
2023-02-06T17:08:28.435Z,2.20
2023-02-06T17:13:50.158Z,2.60
2023-02-06T17:19:15.122Z,2.50
2023-02-06T17:24:38.633Z,2.60
2023-02-06T17:30:00.389Z,1.95
2023-02-06T17:35:22.222Z,1.85
2023-02-06T17:40:44.550Z,1.92
2023-02-06T17:46:06.717Z,1.90
2023-02-06T17:51:28.771Z,1.83
2023-02-06T17:56:50.508Z,1.50
2023-02-06T18:02:14.649Z,1.45
2023-02-06T18:07:38.609Z,1.63
2023-02-06T18:13:00.425Z,2.70
2023-02-06T18:18:27.214Z,3.85
2023-02-06T18:23:49.161Z,3.08
2023-02-06T18:29:11.176Z,2.63
2023-02-06T18:34:33.756Z,3.22
2023-02-06T18:39:55.834Z,2.78
2023-02-06T18:45:21.893Z,3.20
2023-02-06T18:50:43.700Z,3.20
2023-02-06T18:56:05.677Z,2.70
2023-02-06T19:01:27.531Z,2.58
2023-02-06T19:06:50.274Z,3.08
2023-02-06T19:12:12.020Z,2.38
2023-02-06T19:17:34.556Z,2.03
2023-02-06T19:22:57.191Z,2.40
2023-02-06T19:28:18.962Z,2.40
2023-02-06T19:33:41.975Z,1.98
2023-02-06T19:39:06.756Z,2.15
2023-02-06T19:44:31.178Z,2.07
2023-02-06T19:49:53.579Z,1.70
2023-02-06T19:55:15.488Z,1.60
2023-02-06T20:00:37.695Z,2.15
2023-02-06T20:06:11.510Z,1.77
2023-02-06T20:11:34.065Z,2.45
2023-02-06T20:16:55.852Z,2.20
2023-02-06T20:22:17.714Z,3.30
2023-02-06T20:27:39.576Z,3.55
2023-02-06T20:33:01.347Z,4.28
2023-02-06T20:38:23.329Z,3.55
2023-02-06T20:43:47.967Z,3.22
2023-02-06T20:49:15.758Z,2.90
2023-02-06T20:54:38.078Z,3.00
2023-02-06T20:59:59.964Z,2.65
2023-02-06T21:05:21.697Z,2.67
2023-02-06T21:10:43.432Z,3.15
2023-02-06T21:16:05.586Z,2.60
2023-02-06T21:21:27.906Z,2.85
2023-02-06T21:26:49.690Z,2.53
2023-02-06T21:32:13.987Z,3.47
2023-02-06T21:37:36.970Z,2.53
2023-02-06T21:42:58.707Z,2.22
2023-02-06T21:48:20.415Z,2.47
2023-02-06T21:53:43.694Z,2.40
2023-02-06T21:59:06.492Z,2.30
2023-02-06T22:04:28.252Z,2.17
2023-02-06T22:09:49.939Z,2.33
2023-02-06T22:15:11.602Z,2.33
2023-02-06T22:20:33.322Z,2.40
2023-02-06T22:25:55.156Z,2.45
2023-02-06T22:31:20.255Z,2.97
2023-02-06T22:36:43.258Z,2.45
2023-02-06T22:42:05.004Z,2.53
2023-02-06T22:47:26.670Z,2.72
2023-02-06T22:53:07.428Z,2.30
2023-02-06T22:58:29.436Z,2.67
2023-02-06T23:03:53.285Z,2.20
2023-02-06T23:09:19.780Z,2.67
2023-02-06T23:14:42.890Z,2.60
2023-02-06T23:20:05.083Z,2.70
2023-02-06T23:25:26.957Z,3.10
2023-02-06T23:30:48.916Z,2.20
2023-02-06T23:36:16.989Z,2.28
2023-02-06T23:41:38.865Z,2.35
2023-02-06T23:47:00.708Z,2.17
2023-02-06T23:52:22.475Z,2.03
2023-02-06T23:57:44.528Z,2.10
